Time;durP1;ratioP1;P1;durP2;ratioP2;P2;SDS_P1;SDS_P2;PMS_P1;PMS_P2;Temp;Humidity;BMP_temperature;BMP_pressure;BME280_temperature;BME280_humidity;BME280_pressure;Samples;Min_cycle;Max_cycle;Signal;HPM_P1;HPM_P2
2022/09/26 00:02:16;;;;;;;;;;;11.90;99.90;;;;;;4767939;30;19926;-66
2022/09/26 00:04:41;;;;;;;;;;;11.90;99.90;;;;;;4768321;30;19979;-66
2022/09/26 00:07:07;;;;;;;;;;;11.90;99.90;;;;;;4768212;30;20271;-67
2022/09/26 00:09:32;;;;;;;;;;;11.90;99.90;;;;;;4753161;30;19933;-66
2022/09/26 00:11:58;;;;;;;;;;;11.90;99.90;;;;;;4768092;30;20145;-66
2022/09/26 00:14:25;;;;;;;;;;;11.90;99.90;;;;;;4767841;30;19933;-67
2022/09/26 00:16:51;;;;;;;;;;;11.90;99.90;;;;;;4768900;30;20016;-66
2022/09/26 00:19:17;;;;;;;;;;;11.90;99.90;;;;;;4767305;30;20024;-67
2022/09/26 00:21:43;;;;;;;;;;;11.90;99.90;;;;;;4767350;30;19932;-66
2022/09/26 00:24:08;;;;;;;;;;;11.90;99.90;;;;;;4766857;30;20371;-67
2022/09/26 00:26:34;;;;;;;;;;;11.80;99.90;;;;;;4767949;30;19929;-66
2022/09/26 00:29:03;;;;;;;;;;;11.80;99.90;;;;;;4767966;30;20255;-67
2022/09/26 00:31:30;;;;;;;;;;;11.80;99.90;;;;;;4752439;30;19981;-67
2022/09/26 00:33:56;;;;;;;;;;;11.80;99.90;;;;;;4752526;30;19930;-66
2022/09/26 00:36:22;;;;;;;;;;;11.80;99.90;;;;;;4767385;30;19925;-66
2022/09/26 00:38:47;;;;;;;;;;;11.80;99.90;;;;;;4766822;30;20277;-66
2022/09/26 00:41:13;;;;;;;;;;;11.80;99.90;;;;;;4781764;30;19956;-66
2022/09/26 00:43:41;;;;;;;;;;;11.80;99.90;;;;;;4760965;30;19954;-66
2022/09/26 00:46:19;;;;;;;;;;;11.80;99.90;;;;;;4768589;30;20013;-66
2022/09/26 00:48:47;;;;;;;;;;;11.80;99.90;;;;;;4767485;30;20375;-66
2022/09/26 00:51:13;;;;;;;;;;;11.80;99.90;;;;;;4762112;30;20035;-66
2022/09/26 00:53:42;;;;;;;;;;;11.90;99.90;;;;;;4767567;30;20020;-66
2022/09/26 00:56:11;;;;;;;;;;;11.80;99.90;;;;;;4767539;30;19933;-66
2022/09/26 00:58:43;;;;;;;;;;;11.80;99.90;;;;;;4768125;30;19926;-66
2022/09/26 01:01:10;;;;;;;;;;;11.80;99.90;;;;;;4768034;30;19991;-66
2022/09/26 01:03:37;;;;;;;;;;;11.80;99.90;;;;;;4760808;30;19926;-66
2022/09/26 01:06:02;;;;;;;;;;;11.80;99.90;;;;;;4767353;30;19930;-67
2022/09/26 01:08:31;;;;;;;;;;;11.80;99.90;;;;;;4779040;30;19921;-66
2022/09/26 01:10:57;;;;;;;;;;;11.80;99.90;;;;;;4779469;30;20051;-66
2022/09/26 01:13:24;;;;;;;;;;;11.80;99.90;;;;;;4766581;30;19925;-66
2022/09/26 01:15:49;;;;;;;;;;;11.80;99.90;;;;;;4767524;30;19977;-66
2022/09/26 01:18:15;;;;;;;;;;;11.80;99.90;;;;;;4766457;30;19999;-67
2022/09/26 01:20:46;;;;;;;;;;;11.80;99.90;;;;;;4751802;30;19929;-65
2022/09/26 01:23:14;;;;;;;;;;;11.80;99.90;;;;;;4782018;29;19930;-66
2022/09/26 01:25:46;;;;;;;;;;;11.80;99.90;;;;;;4767538;30;19926;-66
2022/09/26 01:28:30;;;;;;;;;;;11.80;99.90;;;;;;4766913;30;19932;-66
2022/09/26 01:30:56;;;;;;;;;;;11.80;99.90;;;;;;4766703;30;19930;-66
2022/09/26 01:33:35;;;;;;;;;;;11.80;99.90;;;;;;4766891;30;19926;-66
2022/09/26 01:36:19;;;;;;;;;;;11.80;99.90;;;;;;4766134;30;19940;-66
2022/09/26 01:38:55;;;;;;;;;;;11.80;99.90;;;;;;4781395;30;20032;-66
2022/09/26 01:41:35;;;;;;;;;;;11.80;99.90;;;;;;4768539;30;19949;-66
2022/09/26 01:44:20;;;;;;;;;;;11.80;99.90;;;;;;4773373;30;19979;-66
2022/09/26 01:46:49;;;;;;;;;;;11.70;99.90;;;;;;4769928;30;19933;-66
2022/09/26 01:49:27;;;;;;;;;;;11.70;99.90;;;;;;4763268;30;20245;-66
2022/09/26 01:51:52;;;;;;;;;;;11.70;99.90;;;;;;4768660;30;19938;-67
2022/09/26 01:54:27;;;;;;;;;;;11.70;99.90;;;;;;4770492;30;20368;-67
2022/09/26 01:56:56;;;;;;;;;;;11.70;99.90;;;;;;4771148;30;19967;-66
2022/09/26 01:59:24;;;;;;;;;;;11.70;99.90;;;;;;4769719;30;19930;-66
2022/09/26 02:01:50;;;;;;;;;;;11.70;99.90;;;;;;4784550;30;19936;-66
2022/09/26 02:04:20;;;;;;;;;;;11.70;99.90;;;;;;4769002;30;20276;-66
2022/09/26 02:06:56;;;;;;;;;;;11.10;99.90;;;;;;4770866;30;19956;-65
2022/09/26 02:09:28;;;;;;;;;;;11.70;99.90;;;;;;4770938;30;19925;-67
2022/09/26 02:11:55;;;;;;;;;;;11.70;99.90;;;;;;4769501;30;20295;-65
2022/09/26 02:14:26;;;;;;;;;;;11.60;99.90;;;;;;4769873;30;19926;-66
2022/09/26 02:16:55;;;;;;;;;;;11.60;99.90;;;;;;4769909;30;20035;-67
2022/09/26 02:19:24;;;;;;;;;;;11.70;99.90;;;;;;4770072;30;19926;-67
2022/09/26 02:21:49;;;;;;;;;;;11.60;99.90;;;;;;4769430;30;19933;-66
2022/09/26 02:24:15;;;;;;;;;;;11.60;99.90;;;;;;4770617;30;19929;-66
2022/09/26 02:26:44;;;;;;;;;;;11.60;99.90;;;;;;4769278;30;19934;-66
2022/09/26 02:29:11;;;;;;;;;;;11.50;99.90;;;;;;4761194;30;20394;-66
2022/09/26 02:32:01;;;;;;;;;;;11.50;99.90;;;;;;4775175;30;20394;-65
2022/09/26 02:34:27;;;;;;;;;;;11.50;99.90;;;;;;4772994;30;19983;-66
2022/09/26 02:36:54;;;;;;;;;;;11.50;99.90;;;;;;4760895;30;19933;-67
2022/09/26 02:39:20;;;;;;;;;;;11.50;99.90;;;;;;4774753;30;19961;-66
2022/09/26 02:41:56;;;;;;;;;;;11.40;99.90;;;;;;4775382;30;19991;-66
2022/09/26 02:44:21;;;;;;;;;;;11.40;99.90;;;;;;4769246;30;19921;-66
2022/09/26 02:46:53;;;;;;;;;;;11.40;99.90;;;;;;4770556;30;20312;-66
2022/09/26 02:49:33;;;;;;;;;;;11.40;99.90;;;;;;4769375;30;19936;-66
2022/09/26 02:52:07;;;;;;;;;;;11.40;99.90;;;;;;4768901;30;19956;-66
2022/09/26 02:54:52;;;;;;;;;;;11.40;99.90;;;;;;4768074;30;20344;-66
2022/09/26 02:57:43;;;;;;;;;;;11.30;99.90;;;;;;4776435;30;19968;-65
2022/09/26 03:00:17;;;;;;;;;;;11.30;99.90;;;;;;4779781;30;20024;-67
2022/09/26 03:03:06;;;;;;;;;;;11.30;99.90;;;;;;4763025;30;19929;-65
2022/09/26 03:05:33;;;;;;;;;;;11.30;99.90;;;;;;4774085;30;19936;-66
2022/09/26 03:08:06;;;;;;;;;;;11.30;99.90;;;;;;4752476;30;20012;-66
2022/09/26 03:10:32;;;;;;;;;;;11.30;99.90;;;;;;4763630;30;19950;-66
2022/09/26 03:13:06;;;;;;;;;;;11.30;99.90;;;;;;4754365;30;19925;-66
2022/09/26 03:15:33;;;;;;;;;;;11.30;99.90;;;;;;4774270;29;19925;-66
2022/09/26 03:17:59;;;;;;;;;;;11.20;99.90;;;;;;4766955;30;19969;-66
2022/09/26 03:20:25;;;;;;;;;;;11.30;99.90;;;;;;4770242;30;19926;-67
2022/09/26 03:22:51;;;;;;;;;;;11.20;99.90;;;;;;4769260;30;19936;-66
2022/09/26 03:25:18;;;;;;;;;;;11.20;99.90;;;;;;4770567;30;19975;-67
2022/09/26 03:27:45;;;;;;;;;;;11.30;99.90;;;;;;4754357;30;19926;-66
2022/09/26 03:30:11;;;;;;;;;;;11.30;99.90;;;;;;4768385;30;20319;-66
2022/09/26 03:32:36;;;;;;;;;;;11.20;99.90;;;;;;4777831;30;20290;-66
2022/09/26 03:35:02;;;;;;;;;;;11.20;99.90;;;;;;4780583;30;19926;-66
2022/09/26 03:37:28;;;;;;;;;;;11.20;99.90;;;;;;4768659;30;20326;-66
2022/09/26 03:39:54;;;;;;;;;;;11.20;99.90;;;;;;4780307;30;20036;-66
2022/09/26 03:42:19;;;;;;;;;;;11.20;99.90;;;;;;4797049;29;19930;-66
2022/09/26 03:44:45;;;;;;;;;;;11.20;99.90;;;;;;4760237;30;19959;-66
2022/09/26 03:47:11;;;;;;;;;;;11.20;99.90;;;;;;4773300;30;20040;-66
2022/09/26 03:49:37;;;;;;;;;;;11.20;99.90;;;;;;4768011;29;19982;-66
2022/09/26 03:52:03;;;;;;;;;;;11.20;99.90;;;;;;4753781;30;19930;-66
2022/09/26 03:54:29;;;;;;;;;;;11.20;99.90;;;;;;4753520;30;19930;-66
2022/09/26 03:56:54;;;;;;;;;;;11.20;99.90;;;;;;4767253;30;20009;-66
2022/09/26 03:59:20;;;;;;;;;;;11.20;99.90;;;;;;4768012;30;19977;-67
2022/09/26 04:01:46;;;;;;;;;;;11.20;99.90;;;;;;4767043;30;20406;-66
2022/09/26 04:04:14;;;;;;;;;;;11.20;99.90;;;;;;4767288;30;19930;-66
2022/09/26 04:06:39;;;;;;;;;;;11.20;99.90;;;;;;4768684;30;19933;-66
2022/09/26 04:09:05;;;;;;;;;;;11.20;99.90;;;;;;4752301;30;20028;-66
2022/09/26 04:11:31;;;;;;;;;;;11.20;99.90;;;;;;4769916;30;19925;-66
2022/09/26 04:13:56;;;;;;;;;;;11.20;99.90;;;;;;4769516;30;20146;-66
2022/09/26 04:16:22;;;;;;;;;;;11.20;99.90;;;;;;4767873;30;21087;-67
2022/09/26 04:18:48;;;;;;;;;;;11.20;99.90;;;;;;4781953;29;19933;-67
2022/09/26 04:21:14;;;;;;;;;;;11.20;99.90;;;;;;4768955;30;19934;-66
2022/09/26 04:23:40;;;;;;;;;;;11.20;99.90;;;;;;4752516;30;20380;-67
2022/09/26 04:26:07;;;;;;;;;;;11.20;99.90;;;;;;4767840;30;19922;-66
2022/09/26 04:28:34;;;;;;;;;;;11.20;99.90;;;;;;4768262;30;20020;-66
2022/09/26 04:31:00;;;;;;;;;;;11.20;99.90;;;;;;4766952;30;19950;-66
2022/09/26 04:33:25;;;;;;;;;;;11.10;99.90;;;;;;4767804;30;19926;-66
2022/09/26 04:35:51;;;;;;;;;;;11.20;99.90;;;;;;4767562;30;19936;-66
2022/09/26 04:38:17;;;;;;;;;;;11.10;99.90;;;;;;4774481;30;19933;-66
2022/09/26 04:40:43;;;;;;;;;;;11.10;99.90;;;;;;4765467;30;19984;-66
2022/09/26 04:43:09;;;;;;;;;;;11.20;99.90;;;;;;4777107;30;20307;-66
2022/09/26 04:45:35;;;;;;;;;;;11.20;99.90;;;;;;4753158;30;19969;-66
2022/09/26 04:48:00;;;;;;;;;;;11.20;99.90;;;;;;4766836;30;20279;-66
2022/09/26 04:50:27;;;;;;;;;;;11.20;99.90;;;;;;4770912;30;19925;-66
2022/09/26 04:52:53;;;;;;;;;;;11.10;99.90;;;;;;4752212;30;19977;-66
2022/09/26 04:55:19;;;;;;;;;;;11.10;99.90;;;;;;4764061;30;20392;-66
2022/09/26 04:57:47;;;;;;;;;;;11.10;99.90;;;;;;4767210;30;19928;-66
2022/09/26 05:00:13;;;;;;;;;;;11.20;99.90;;;;;;4767987;30;19926;-66
2022/09/26 05:02:39;;;;;;;;;;;11.10;99.90;;;;;;4737605;30;19930;-66
2022/09/26 05:05:05;;;;;;;;;;;11.10;99.90;;;;;;4781609;30;19930;-66
2022/09/26 05:07:31;;;;;;;;;;;11.10;99.90;;;;;;4754450;30;20300;-66
2022/09/26 05:09:56;;;;;;;;;;;11.10;99.90;;;;;;4766516;30;19926;-66
2022/09/26 05:12:22;;;;;;;;;;;11.10;99.90;;;;;;4781933;30;19922;-66
2022/09/26 05:14:48;;;;;;;;;;;11.10;99.90;;;;;;4781967;29;19925;-66
2022/09/26 05:17:14;;;;;;;;;;;11.10;99.90;;;;;;4784282;30;20029;-66
2022/09/26 05:19:41;;;;;;;;;;;11.10;99.90;;;;;;4784856;30;19986;-66
2022/09/26 05:22:07;;;;;;;;;;;11.00;99.90;;;;;;4769945;30;19976;-66
2022/09/26 05:27:18;;;;;;;;;;;11.00;99.90;;;;;;4770961;30;19955;-66
2022/09/26 05:29:44;;;;;;;;;;;11.00;99.90;;;;;;4771909;30;19926;-66
2022/09/26 05:32:10;;;;;;;;;;;11.00;99.90;;;;;;4771090;30;19948;-66
2022/09/26 05:34:36;;;;;;;;;;;11.00;99.90;;;;;;4770975;30;19965;-66
2022/09/26 05:37:01;;;;;;;;;;;11.00;99.90;;;;;;4770949;29;20022;-66
2022/09/26 05:42:11;;;;;;;;;;;11.00;99.90;;;;;;4769705;30;19930;-65
2022/09/26 05:44:38;;;;;;;;;;;11.00;99.90;;;;;;4774007;30;19926;-66
2022/09/26 05:47:04;;;;;;;;;;;11.00;99.90;;;;;;4769036;30;20439;-66
2022/09/26 05:49:31;;;;;;;;;;;11.00;99.90;;;;;;4769739;30;20056;-66
2022/09/26 05:51:57;;;;;;;;;;;11.00;99.90;;;;;;4737736;30;20455;-66
2022/09/26 05:54:23;;;;;;;;;;;11.00;99.90;;;;;;4782535;29;19936;-66
2022/09/26 05:56:48;;;;;;;;;;;11.00;99.90;;;;;;4761988;30;19992;-66
2022/09/26 05:59:14;;;;;;;;;;;11.00;99.90;;;;;;4769223;30;19926;-67
2022/09/26 06:01:39;;;;;;;;;;;10.90;99.90;;;;;;4770149;30;19948;-66
2022/09/26 06:04:05;;;;;;;;;;;10.90;99.90;;;;;;4754854;30;20038;-67
2022/09/26 06:06:31;;;;;;;;;;;10.90;99.90;;;;;;4787512;29;19930;-66
2022/09/26 06:08:56;;;;;;;;;;;10.90;99.90;;;;;;4772041;30;19929;-66
2022/09/26 06:11:29;;;;;;;;;;;10.90;99.90;;;;;;4775801;30;19981;-66
2022/09/26 06:13:57;;;;;;;;;;;10.90;99.90;;;;;;4770345;30;19925;-66
2022/09/26 06:16:22;;;;;;;;;;;10.90;99.90;;;;;;4774358;30;20390;-66
2022/09/26 06:18:49;;;;;;;;;;;10.90;99.90;;;;;;4757077;30;20020;-66
2022/09/26 06:21:16;;;;;;;;;;;10.90;99.90;;;;;;4774217;30;19984;-67
2022/09/26 06:23:42;;;;;;;;;;;10.80;99.90;;;;;;4771793;30;19926;-67
2022/09/26 06:26:20;;;;;;;;;;;10.80;99.90;;;;;;4768962;30;19930;-66
2022/09/26 06:28:46;;;;;;;;;;;10.90;99.90;;;;;;4792163;29;19987;-67
2022/09/26 06:31:13;;;;;;;;;;;10.80;99.90;;;;;;4774556;30;19929;-66
2022/09/26 06:33:39;;;;;;;;;;;10.90;99.90;;;;;;4771577;30;20012;-67
2022/09/26 06:36:05;;;;;;;;;;;10.90;99.90;;;;;;4769792;30;20025;-66
2022/09/26 06:38:31;;;;;;;;;;;10.90;99.90;;;;;;4769881;30;19925;-66
2022/09/26 06:40:57;;;;;;;;;;;10.90;99.90;;;;;;4771257;30;19935;-67
2022/09/26 06:43:22;;;;;;;;;;;10.90;99.90;;;;;;4784154;30;19983;-66
2022/09/26 06:45:48;;;;;;;;;;;10.80;99.90;;;;;;4766180;30;19975;-66
2022/09/26 06:48:14;;;;;;;;;;;10.80;99.90;;;;;;4769133;30;19975;-66
2022/09/26 06:50:40;;;;;;;;;;;11.00;99.90;;;;;;4770134;30;19994;-66
2022/09/26 06:53:06;;;;;;;;;;;10.80;99.90;;;;;;4767796;30;20380;-66
2022/09/26 06:55:31;;;;;;;;;;;10.90;99.90;;;;;;4773688;30;20016;-66
2022/09/26 06:57:57;;;;;;;;;;;10.80;99.90;;;;;;4741969;30;20422;-66
2022/09/26 07:00:23;;;;;;;;;;;10.90;99.90;;;;;;4775860;30;19925;-66
2022/09/26 07:02:52;;;;;;;;;;;10.80;99.90;;;;;;4774758;30;19933;-66
2022/09/26 07:05:19;;;;;;;;;;;10.80;99.90;;;;;;4780084;30;20446;-67
2022/09/26 07:07:46;;;;;;;;;;;10.80;99.90;;;;;;4777689;30;20372;-67
2022/09/26 07:10:12;;;;;;;;;;;10.80;99.90;;;;;;4775742;30;19933;-67
2022/09/26 07:12:42;;;;;;;;;;;10.80;99.90;;;;;;4767682;30;19969;-66
2022/09/26 07:15:12;;;;;;;;;;;10.80;99.90;;;;;;4769762;30;20367;-67
2022/09/26 07:17:42;;;;;;;;;;;10.80;99.90;;;;;;4768007;30;20388;-67
2022/09/26 07:20:17;;;;;;;;;;;10.80;99.90;;;;;;4769762;30;20283;-67
2022/09/26 07:22:43;;;;;;;;;;;10.90;99.90;;;;;;4768293;30;19934;-66
2022/09/26 07:25:10;;;;;;;;;;;10.90;99.90;;;;;;4782595;30;19934;-66
2022/09/26 07:27:36;;;;;;;;;;;10.90;99.90;;;;;;4768220;30;20273;-67
2022/09/26 07:30:02;;;;;;;;;;;10.90;99.90;;;;;;4772005;30;19925;-67
2022/09/26 07:32:29;;;;;;;;;;;10.90;99.90;;;;;;4769551;30;20307;-67
2022/09/26 07:34:58;;;;;;;;;;;10.90;99.90;;;;;;4767510;30;19926;-67
2022/09/26 07:37:24;;;;;;;;;;;11.20;99.90;;;;;;4767150;30;20247;-67
2022/09/26 07:39:49;;;;;;;;;;;11.00;99.90;;;;;;4755061;30;19934;-67
2022/09/26 07:42:16;;;;;;;;;;;10.90;99.90;;;;;;4774104;30;19949;-66
2022/09/26 07:44:43;;;;;;;;;;;10.90;99.90;;;;;;4773493;30;19980;-66
2022/09/26 07:50:26;;;;;;;;;;;10.90;99.90;;;;;;4755482;30;19985;-67
2022/09/26 07:52:45;;;;;;;;;;;10.90;99.90;;;;;;4763226;30;19982;-65
2022/09/26 07:55:13;;;;;;;;;;;10.90;99.90;;;;;;4771197;30;19970;-66
2022/09/26 07:57:38;;;;;;;;;;;11.00;99.90;;;;;;4774451;30;20411;-67
2022/09/26 08:00:06;;;;;;;;;;;11.00;99.90;;;;;;4789674;29;19929;-67
2022/09/26 08:02:35;;;;;;;;;;;11.00;99.90;;;;;;4778125;30;19925;-67
2022/09/26 08:05:02;;;;;;;;;;;11.00;99.90;;;;;;4774612;30;19930;-67
2022/09/26 08:07:28;;;;;;;;;;;11.10;99.90;;;;;;4779672;30;20569;-67
2022/09/26 08:09:54;;;;;;;;;;;11.10;99.90;;;;;;4776487;30;19929;-67
2022/09/26 08:12:20;;;;;;;;;;;11.20;99.90;;;;;;4771172;30;19926;-66
2022/09/26 08:14:49;;;;;;;;;;;11.20;99.90;;;;;;4770828;30;19929;-66
2022/09/26 08:17:15;;;;;;;;;;;11.30;99.90;;;;;;4757911;30;19925;-67
2022/09/26 08:19:41;;;;;;;;;;;11.30;99.90;;;;;;4776887;30;19940;-67
2022/09/26 08:22:07;;;;;;;;;;;11.30;99.90;;;;;;4772949;30;19925;-66
2022/09/26 08:24:32;;;;;;;;;;;11.40;99.90;;;;;;4791104;29;19936;-66
2022/09/26 08:26:59;;;;;;;;;;;11.40;99.90;;;;;;4760017;30;20337;-65
2022/09/26 08:29:25;;;;;;;;;;;11.40;99.90;;;;;;4788529;29;19972;-67
2022/09/26 08:31:50;;;;;;;;;;;11.40;99.90;;;;;;4782244;29;19987;-66
2022/09/26 08:34:16;;;;;;;;;;;11.50;99.90;;;;;;4754090;30;19930;-65
2022/09/26 08:36:42;;;;;;;;;;;11.50;99.90;;;;;;4769903;30;19932;-65
2022/09/26 08:39:09;;;;;;;;;;;11.50;99.90;;;;;;4768043;30;19929;-64
2022/09/26 08:41:46;;;;;;;;;;;11.50;99.90;;;;;;4763239;30;19940;-65
2022/09/26 08:44:30;;;;;;;;;;;11.50;99.90;;;;;;4758910;30;19932;-66
2022/09/26 08:47:00;;;;;;;;;;;11.50;99.90;;;;;;4757433;30;20932;-67
2022/09/26 08:49:35;;;;;;;;;;;11.50;99.90;;;;;;4759208;30;19976;-66
2022/09/26 08:52:04;;;;;;;;;;;11.50;99.90;;;;;;4755181;30;19933;-66
2022/09/26 08:54:41;;;;;;;;;;;11.50;99.90;;;;;;4769376;30;19934;-66
2022/09/26 08:57:25;;;;;;;;;;;11.50;99.90;;;;;;4766493;30;19932;-67
2022/09/26 08:59:52;;;;;;;;;;;11.50;99.90;;;;;;4768020;29;19926;-66
2022/09/26 09:02:33;;;;;;;;;;;11.50;99.90;;;;;;4775190;30;19937;-67
2022/09/26 09:05:07;;;;;;;5.47;3.37;;;11.50;99.90;;;;;;4774677;30;20388;-67
2022/09/26 09:07:33;;;;;;;7.72;3.67;;;11.50;99.90;;;;;;4752713;30;20194;-66
2022/09/26 09:10:06;;;;;;;11.10;3.60;;;11.50;99.90;;;;;;4784796;29;20087;-66
2022/09/26 09:12:58;;;;;;;5.65;3.53;;;11.50;99.90;;;;;;4760536;30;20122;-67
2022/09/26 09:15:35;;;;;;;7.40;3.90;;;11.50;99.90;;;;;;4756691;30;20062;-68
2022/09/26 09:18:01;;;;;;;;;;;11.50;99.90;;;;;;4758935;30;19926;-70
2022/09/26 09:20:47;;;;;;;;;;;11.60;99.90;;;;;;4761099;30;19987;-69
2022/09/26 09:23:18;;;;;;;;;;;11.60;99.90;;;;;;4763373;29;19984;-67
2022/09/26 09:26:02;;;;;;;;;;;11.60;99.90;;;;;;4758066;30;19934;-66
2022/09/26 09:28:47;;;;;;;;;;;11.70;99.90;;;;;;4779468;30;19926;-68
2022/09/26 09:31:13;;;;;;;;;;;11.70;99.90;;;;;;4769999;30;20026;-68
2022/09/26 09:33:46;;;;;;;;;;;11.70;99.90;;;;;;4749776;29;20068;-68
2022/09/26 09:36:17;;;;;;;;;;;11.70;99.90;;;;;;4764679;30;19930;-69
2022/09/26 09:38:44;;;;;;;;;;;11.70;99.90;;;;;;4770829;30;19936;-69
2022/09/26 09:41:15;;;;;;;;;;;11.80;99.90;;;;;;4773587;30;19933;-68
2022/09/26 09:43:53;;;;;;;;;;;11.70;99.90;;;;;;4759069;30;19940;-68
2022/09/26 09:46:27;;;;;;;;;;;11.80;99.90;;;;;;4745744;30;20648;-71
2022/09/26 09:49:09;;;;;;;;;;;11.80;99.90;;;;;;4762188;30;20360;-68
2022/09/26 09:51:44;;;;;;;;;;;11.80;99.90;;;;;;4766336;30;19934;-69
2022/09/26 09:54:28;;;;;;;;;;;11.80;99.90;;;;;;4767630;30;19930;-66
2022/09/26 09:57:06;;;;;;;;;;;11.90;99.90;;;;;;4761983;30;19926;-66
2022/09/26 09:59:35;;;;;;;;;;;11.90;99.90;;;;;;4763393;30;19933;-66
2022/09/26 10:02:10;;;;;;;;;;;11.80;99.90;;;;;;4761678;30;19979;-67
2022/09/26 10:04:35;;;;;;;;;;;11.90;99.90;;;;;;4761108;30;19925;-69
2022/09/26 10:07:02;;;;;;;;;;;11.90;99.90;;;;;;4765729;30;19925;-67
2022/09/26 10:09:31;;;;;;;;;;;11.90;99.90;;;;;;4755608;30;20400;-66
2022/09/26 10:11:57;;;;;;;;;;;11.90;99.90;;;;;;4770043;30;19933;-66
2022/09/26 10:14:43;;;;;;;;;;;11.80;99.90;;;;;;4768579;30;20364;-68
2022/09/26 10:17:09;;;;;;;;;;;11.80;99.90;;;;;;4770467;30;19983;-66
2022/09/26 10:19:36;;;;;;;;;;;11.80;99.90;;;;;;4768802;30;19977;-66
2022/09/26 10:22:02;;;;;;;;;;;11.80;99.90;;;;;;4771258;30;19932;-67
2022/09/26 10:24:39;;;;;;;;;;;11.80;99.90;;;;;;4773503;30;19925;-66
2022/09/26 10:27:15;;;;;;;;;;;11.80;99.90;;;;;;4749922;30;19933;-66
2022/09/26 10:29:42;;;;;;;;;;;11.80;99.90;;;;;;4778443;30;19925;-67
2022/09/26 10:32:09;;;;;;;;;;;11.80;99.90;;;;;;4774712;30;20004;-66
2022/09/26 10:34:37;;;;;;;;;;;11.90;99.90;;;;;;4773951;30;19975;-66
2022/09/26 10:37:21;;;;;;;;;;;11.90;99.90;;;;;;4753862;30;20013;-66
2022/09/26 10:42:37;;;;;;;;;;;12.00;99.90;;;;;;4780529;29;20063;-66
2022/09/26 10:45:14;;;;;;;;;;;12.00;99.90;;;;;;4771863;30;20016;-67
2022/09/26 10:47:44;;;;;;;;;;;12.00;99.90;;;;;;4766254;30;19979;-66
2022/09/26 10:50:16;;;;;;;;;;;12.00;99.90;;;;;;4768359;30;19974;-66
2022/09/26 10:52:44;;;;;;;;;;;11.90;99.90;;;;;;4768453;30;19937;-66
2022/09/26 10:55:13;;;;;;;;;;;11.90;99.90;;;;;;4768576;30;20454;-67
2022/09/26 10:57:45;;;;;;;6.40;5.25;;;11.90;99.90;;;;;;4782191;30;20099;-66
2022/09/26 11:00:20;;;;;;;7.85;4.85;;;11.80;99.90;;;;;;4770736;30;20173;-67
2022/09/26 11:02:51;;;;;;;9.70;5.15;;;11.80;99.90;;;;;;4756490;30;20948;-67
2022/09/26 11:08:10;;;;;;;10.65;5.78;;;11.80;99.90;;;;;;4776873;29;20533;-67
2022/09/26 11:10:40;;;;;;;7.20;4.35;;;11.90;99.90;;;;;;4767873;30;20075;-68
2022/09/26 11:13:37;;;;;;;8.80;5.22;;;11.80;99.90;;;;;;4772707;29;20075;-67
2022/09/26 11:16:08;;;;;;;10.05;4.60;;;11.80;99.90;;;;;;4773276;30;20094;-67
2022/09/26 11:19:00;;;;;;;9.57;4.60;;;11.80;99.90;;;;;;4774632;29;20055;-66
2022/09/26 11:21:39;;;;;;;;;;;11.80;99.90;;;;;;4772997;29;20047;-66
2022/09/26 11:24:14;;;;;;;;;;;11.80;99.90;;;;;;4771801;30;20020;-66
2022/09/26 11:26:58;;;;;;;;;;;11.70;99.90;;;;;;4769666;30;20295;-66
2022/09/26 11:29:46;;;;;;;;;;;11.70;99.90;;;;;;4772813;30;19929;-66
2022/09/26 11:32:16;;;;;;;;;;;11.70;99.90;;;;;;4771416;30;20000;-67
2022/09/26 11:34:42;;;;;;;;;;;11.80;99.90;;;;;;4773158;30;19930;-66
2022/09/26 11:37:10;;;;;;;;;;;11.80;99.90;;;;;;4769915;30;19933;-66
2022/09/26 11:39:39;;;;;;;;;;;11.80;99.90;;;;;;4784095;29;20002;-66
2022/09/26 11:42:16;;;;;;;;;;;11.80;99.90;;;;;;4771652;30;19933;-65
2022/09/26 11:44:59;;;;;;;;;;;11.80;99.90;;;;;;4764676;30;19925;-66
2022/09/26 11:47:38;;;;;;;;;;;11.80;99.90;;;;;;4767300;30;20387;-66
2022/09/26 11:50:04;;;;;;;;;;;11.80;99.90;;;;;;4767663;30;19930;-67
2022/09/26 11:52:35;;;;;;;;;;;11.80;99.90;;;;;;4768056;30;19949;-66
2022/09/26 11:55:01;;;;;;;;;;;11.80;99.90;;;;;;4764278;30;19964;-67
2022/09/26 11:57:42;;;;;;;;;;;11.80;99.90;;;;;;4775916;30;19965;-66
2022/09/26 12:00:14;;;;;;;;;;;11.80;99.90;;;;;;4785385;29;19933;-66
2022/09/26 12:02:43;;;;;;;;;;;11.90;99.90;;;;;;4773872;30;19930;-68
2022/09/26 12:05:23;;;;;;;;;;;11.90;99.90;;;;;;4773423;30;20383;-65
2022/09/26 12:07:54;;;;;;;;;;;11.90;99.90;;;;;;4776477;30;19933;-65
2022/09/26 12:10:44;;;;;;;;;;;11.90;99.90;;;;;;4769318;30;19937;-64
2022/09/26 12:13:18;;;;;;;;;;;12.00;99.90;;;;;;4774727;30;19934;-64
2022/09/26 12:15:55;;;;;;;;;;;12.00;99.90;;;;;;4783844;29;20351;-64
2022/09/26 12:18:26;;;;;;;;;;;12.00;99.90;;;;;;4777570;30;19926;-64
2022/09/26 12:21:09;;;;;;;;;;;12.10;99.90;;;;;;4775162;30;19936;-64
2022/09/26 12:23:56;;;;;;;;;;;12.10;99.90;;;;;;4758328;30;19929;-65
2022/09/26 12:26:21;;;;;;;;;;;12.10;99.90;;;;;;4774996;30;19961;-64
2022/09/26 12:28:53;;;;;;;;;;;12.10;99.90;;;;;;4776213;30;19965;-67
2022/09/26 12:31:21;;;;;;;;;;;12.20;99.90;;;;;;4777394;30;19933;-65
2022/09/26 12:33:57;;;;;;;;;;;12.10;99.90;;;;;;4775631;30;20329;-64
2022/09/26 12:36:25;;;;;;;;;;;12.20;99.90;;;;;;4776734;30;19966;-64
2022/09/26 12:38:58;;;;;;;;;;;12.20;99.90;;;;;;4777663;30;20379;-64
2022/09/26 12:41:43;;;;;;;;;;;12.20;99.90;;;;;;4775330;30;19925;-64
2022/09/26 12:44:34;;;;;;;;;;;12.20;99.90;;;;;;4776058;30;19934;-64
2022/09/26 12:47:07;;;;;;;;;;;12.30;99.90;;;;;;4767560;29;20402;-65
2022/09/26 12:49:40;;;;;;;;;;;12.30;99.90;;;;;;4769003;30;20265;-65
2022/09/26 12:52:15;;;;;;;;;;;12.40;99.90;;;;;;4768668;30;19940;-65
2022/09/26 12:54:49;;;;;;;;;;;12.40;99.90;;;;;;4781961;30;20028;-65
2022/09/26 12:57:28;;;;;;;;;;;12.50;99.90;;;;;;4768143;30;20052;-64
2022/09/26 13:00:17;;;;;;;;;;;12.50;99.90;;;;;;4757992;30;19929;-64
2022/09/26 13:03:01;;;;;;;;;;;12.50;99.90;;;;;;4768171;30;19930;-67
2022/09/26 13:05:42;;;;;;;;;;;12.50;99.90;;;;;;4767222;30;19934;-64
2022/09/26 13:08:08;;;;;;;;;;;12.60;99.90;;;;;;4770234;30;19933;-64
2022/09/26 13:10:37;;;;;;;;;;;12.60;99.90;;;;;;4778736;30;19930;-66
2022/09/26 13:13:24;;;;;;;;;;;12.60;99.90;;;;;;4779321;30;19925;-64
2022/09/26 13:16:03;;;;;;;;;;;12.70;99.90;;;;;;4784817;30;19933;-64
2022/09/26 13:18:44;;;;;;;;;;;12.80;99.90;;;;;;4774641;29;19988;-64
2022/09/26 13:21:12;;;;;;;;;;;12.90;99.90;;;;;;4774073;30;20375;-64
2022/09/26 13:23:42;;;;;;;;;;;13.00;99.90;;;;;;4775682;30;19929;-65
2022/09/26 13:26:13;;;;;;;;;;;13.00;99.90;;;;;;4768956;30;20328;-65
2022/09/26 13:28:41;;;;;;;;;;;13.00;99.90;;;;;;4761856;30;19937;-65
2022/09/26 13:31:17;;;;;;;;;;;13.00;99.90;;;;;;4774154;30;19934;-65
2022/09/26 13:33:52;;;;;;;;;;;12.90;99.90;;;;;;4781614;30;20456;-65
2022/09/26 13:36:21;;;;;;;;;;;12.90;99.90;;;;;;4759244;30;19937;-65
2022/09/26 13:39:02;;;;;;;;;;;13.00;99.90;;;;;;4758808;30;20360;-65
2022/09/26 13:41:42;;;;;;;;;;;13.00;99.90;;;;;;4767689;30;20311;-65
2022/09/26 13:44:08;;;;;;;;;;;13.00;99.90;;;;;;4779393;30;19934;-65
2022/09/26 13:46:40;;;;;;;;;;;13.00;99.90;;;;;;4770135;30;19930;-62
2022/09/26 13:49:25;;;;;;;;;;;13.10;99.90;;;;;;4779183;29;19987;-63
2022/09/26 13:52:11;;;;;;;;;;;13.10;99.90;;;;;;4769003;30;19969;-64
2022/09/26 13:54:54;;;;;;;;;;;13.10;99.90;;;;;;4769195;29;19988;-63
2022/09/26 13:57:33;;;;;;;;;;;13.10;99.90;;;;;;4777568;30;19933;-63
2022/09/26 13:59:58;;;;;;;;;;;13.10;99.90;;;;;;4773590;30;20032;-63
2022/09/26 14:02:28;;;;;;;;;;;13.10;99.90;;;;;;4782554;30;19934;-63
2022/09/26 14:05:12;;;;;;;;;;;13.20;99.90;;;;;;4782572;30;19934;-65
2022/09/26 14:10:31;;;;;;;;;;;13.30;99.90;;;;;;4771328;30;19937;-63
2022/09/26 14:12:58;;;;;;;;;;;13.30;99.90;;;;;;4781321;29;19938;-69
2022/09/26 14:15:25;;;;;;;;;;;13.30;99.90;;;;;;4769734;30;20322;-62
2022/09/26 14:17:51;;;;;;;;;;;13.40;99.90;;;;;;4781851;30;19929;-64
2022/09/26 14:20:28;;;;;;;;;;;13.40;99.90;;;;;;4756405;30;20381;-63
2022/09/26 14:22:54;;;;;;;;;;;13.40;99.90;;;;;;4758526;30;20016;-66
2022/09/26 14:25:40;;;;;;;;;;;13.40;99.90;;;;;;4771709;30;19929;-63
2022/09/26 14:28:15;;;;;;;;;;;13.40;99.90;;;;;;4763563;29;20376;-63
2022/09/26 14:31:01;;;;;;;;;;;13.50;99.90;;;;;;4757576;29;19941;-63
2022/09/26 14:33:27;;;;;;;;;;;13.50;99.90;;;;;;4768176;30;19930;-64
2022/09/26 14:36:12;;;;;;;;;;;13.60;99.90;;;;;;4769347;30;19933;-63
2022/09/26 14:38:39;;;;;;;;;;;13.50;99.90;;;;;;4778161;30;20407;-63
2022/09/26 14:41:05;;;;;;;;;;;13.50;99.90;;;;;;4763607;30;20388;-63
2022/09/26 14:43:34;;;;;;;;;;;13.60;99.90;;;;;;4765413;30;19938;-63
2022/09/26 14:46:01;;;;;;;;;;;13.60;99.90;;;;;;4766929;30;19929;-64
2022/09/26 14:48:40;;;;;;;;;;;13.60;99.90;;;;;;4765866;30;19930;-64
2022/09/26 14:51:10;;;;;;;;;;;13.60;99.90;;;;;;4778663;29;19938;-63